Skip Navigation LinksHome page > Weather > Current weather Skip Navigation Links

Current Weather

Sarh, Chad

For information only: do not use for flight planning or navigation.
Latest weather
Observation time Wednesday, March 29, 2017 7:00 AM WAT
Local time Wednesday, March 29, 2017 8:11 AM WAT
Flight conditions Visual Meteorological Conditions
Winds
Wind direction West-Southwest (240°)
Wind speed 9 mph
Visibility 6.2 mi.
Sky condition
Ceiling unlimited
Sky clear
Temperature 86°F
Dewpoint 66°F
Altimeter 29.83 in.Hg
Derived measurements
Relative humidity 52%
Heat index 88°F
Density altitude 2491 ft.
Remarks
Ceiling and visibility OK.
METAR FTTA 290600Z 24008KT CAVOK 30/19 Q1010

Settings

Location code

InnerDrive.Weather 4.0.6144.1 Release CLR 4.0.30319.34209
Copyright ©2015 Inner Drive Technology. All rights reserved. Portions Copyright ©1986-2015 David Braverman.

Find weather

Site navigation


Skip Navigation Links

Place info

Page info

PayPal - The safer, easier way to pay online!

Return home.

Copyright ©2017 Inner Drive Technology. Purveyors of fine, hand-crafted computer software. Page printed 2017-03-29T07:11:24 UTC.